Time;durP1;ratioP1;P1;durP2;ratioP2;P2;SDS_P1;SDS_P2;PMS_P1;PMS_P2;Temp;Humidity;BMP_temperature;BMP_pressure;BME280_temperature;BME280_humidity;BME280_pressure;Samples;Min_cycle;Max_cycle;Signal;HPM_P1;HPM_P2
2023/03/12 00:00:07;;;;;;;3.83;1.40;;;15.80;99.90;;;;;;5075803;28;20481;-63
2023/03/12 00:02:34;;;;;;;5.70;1.70;;;15.80;99.90;;;;;;5074511;28;20025;-64
2023/03/12 00:05:00;;;;;;;2.75;1.35;;;15.80;99.90;;;;;;5075699;28;20037;-64
2023/03/12 00:07:26;;;;;;;4.30;1.60;;;15.80;99.90;;;;;;5075143;28;20956;-64
2023/03/12 00:09:51;;;;;;;2.65;1.30;;;15.80;99.90;;;;;;5074640;28;20033;-64
2023/03/12 00:12:18;;;;;;;5.72;1.80;;;15.80;99.90;;;;;;5075240;28;20062;-64
2023/03/12 00:14:44;;;;;;;5.07;1.77;;;15.80;99.90;;;;;;5075703;28;20095;-64
2023/03/12 00:17:09;;;;;;;4.80;1.48;;;15.80;99.90;;;;;;5075189;28;20035;-69
2023/03/12 00:19:35;;;;;;;5.45;1.98;;;15.80;99.90;;;;;;5074515;28;20028;-64
2023/03/12 00:22:01;;;;;;;2.38;1.20;;;15.80;99.90;;;;;;5075552;28;20107;-64
2023/03/12 00:24:27;;;;;;;3.25;1.50;;;15.80;99.90;;;;;;5075037;28;20439;-64
2023/03/12 00:26:53;;;;;;;4.93;1.88;;;15.80;99.90;;;;;;5074436;28;20166;-64
2023/03/12 00:29:19;;;;;;;3.80;1.58;;;15.70;99.90;;;;;;5074931;28;20029;-64
2023/03/12 00:31:45;;;;;;;3.13;1.50;;;15.70;99.90;;;;;;5074444;28;20037;-68
2023/03/12 00:34:11;;;;;;;3.60;1.70;;;15.80;99.90;;;;;;5072938;28;20060;-64
2023/03/12 00:36:37;;;;;;;6.60;1.45;;;15.80;99.90;;;;;;5075442;28;20420;-64
2023/03/12 00:39:03;;;;;;;2.85;1.30;;;15.70;99.90;;;;;;5075013;28;20028;-64
2023/03/12 00:41:29;;;;;;;3.05;1.45;;;15.70;99.90;;;;;;5074202;28;20025;-64
2023/03/12 00:43:56;;;;;;;3.85;1.73;;;15.70;99.90;;;;;;5074957;28;20124;-64
2023/03/12 00:46:22;;;;;;;3.20;1.40;;;15.70;99.90;;;;;;5075103;28;20078;-63
2023/03/12 00:48:48;;;;;;;3.22;1.50;;;15.70;99.90;;;;;;5072999;28;20044;-64
2023/03/12 00:51:14;;;;;;;4.10;1.52;;;15.70;99.90;;;;;;5075065;28;20031;-64
2023/03/12 00:53:40;;;;;;;3.85;1.75;;;15.70;99.90;;;;;;5057252;28;20108;-64
2023/03/12 00:56:06;;;;;;;4.00;1.27;;;15.70;99.90;;;;;;5075138;28;20048;-63
2023/03/12 00:58:32;;;;;;;3.70;1.50;;;15.70;99.90;;;;;;5074723;28;20025;-63
2023/03/12 01:00:58;;;;;;;4.75;1.60;;;15.70;99.90;;;;;;5078252;28;20028;-63
2023/03/12 01:03:24;;;;;;;3.33;1.40;;;15.70;99.90;;;;;;5091129;28;20075;-64
2023/03/12 01:05:53;;;;;;;6.00;1.65;;;15.70;99.90;;;;;;5097567;28;20025;-64
2023/03/12 01:08:20;;;;;;;3.47;1.48;;;15.70;99.90;;;;;;5098485;28;20032;-64
2023/03/12 01:10:46;;;;;;;2.50;1.40;;;15.70;99.90;;;;;;5098015;28;20039;-64
2023/03/12 01:13:12;;;;;;;3.17;1.45;;;15.60;99.90;;;;;;5081569;28;20027;-68
2023/03/12 01:15:38;;;;;;;3.78;1.52;;;15.60;99.90;;;;;;5077616;28;20036;-64
2023/03/12 01:18:04;;;;;;;3.80;1.60;;;15.60;99.90;;;;;;5077244;28;20036;-64
2023/03/12 01:20:30;;;;;;;3.67;1.60;;;15.60;99.90;;;;;;5076937;28;20346;-64
2023/03/12 01:22:56;;;;;;;3.70;1.50;;;15.60;99.90;;;;;;5078149;28;20033;-64
2023/03/12 01:25:22;;;;;;;4.70;1.50;;;15.60;99.90;;;;;;5078235;28;20056;-64
2023/03/12 01:27:48;;;;;;;2.80;1.60;;;15.60;99.90;;;;;;5078008;28;20043;-64
2023/03/12 01:30:14;;;;;;;3.33;1.40;;;15.60;99.90;;;;;;5077195;28;20086;-64
2023/03/12 01:32:40;;;;;;;3.90;1.25;;;15.60;99.90;;;;;;5077008;28;20473;-64
2023/03/12 01:35:07;;;;;;;2.55;1.40;;;15.60;99.90;;;;;;5078332;28;20032;-63
2023/03/12 01:37:33;;;;;;;4.28;1.55;;;15.60;99.90;;;;;;5077577;28;20067;-63
2023/03/12 01:39:59;;;;;;;4.32;1.60;;;15.60;99.90;;;;;;5077170;28;20032;-64
2023/03/12 01:42:25;;;;;;;2.83;1.50;;;15.60;99.90;;;;;;5076581;28;20415;-64
2023/03/12 01:45:01;;;;;;;4.00;1.65;;;15.60;99.90;;;;;;5077081;28;20086;-64
2023/03/12 01:47:32;;;;;;;2.70;1.48;;;15.50;99.90;;;;;;5075564;28;20217;-64
2023/03/12 01:50:02;;;;;;;3.28;1.45;;;15.50;99.90;;;;;;5060320;28;20434;-64
2023/03/12 01:52:37;;;;;;;3.38;1.50;;;15.50;99.90;;;;;;5085784;28;20044;-63
2023/03/12 01:55:14;;;;;;;2.47;1.25;;;15.60;99.90;;;;;;5097242;28;20032;-64
2023/03/12 01:57:47;;;;;;;2.92;1.20;;;15.50;99.90;;;;;;5093023;28;20045;-64
2023/03/12 02:00:21;;;;;;;3.85;1.50;;;15.50;99.90;;;;;;5076866;28;20063;-63
2023/03/12 02:02:49;;;;;;;3.17;1.27;;;15.50;99.90;;;;;;5075463;28;20085;-63
2023/03/12 02:05:42;;;;;;;2.58;1.35;;;15.50;99.90;;;;;;5076505;28;20020;-64
2023/03/12 02:08:13;;;;;;;2.88;1.48;;;15.50;99.90;;;;;;5076295;28;20036;-64
2023/03/12 02:10:39;;;;;;;2.78;1.38;;;15.50;99.90;;;;;;5077488;28;20082;-64
2023/03/12 02:13:06;;;;;;;4.82;1.40;;;15.50;99.90;;;;;;5076160;28;20029;-64
2023/03/12 02:15:34;;;;;;;3.38;1.48;;;15.50;99.90;;;;;;5076239;28;20107;-63
2023/03/12 02:18:06;;;;;;;4.03;1.23;;;15.50;99.90;;;;;;5074918;28;20025;-63
2023/03/12 02:20:49;;;;;;;3.15;1.67;;;15.50;99.90;;;;;;5077239;28;20416;-63
2023/03/12 02:23:40;;;;;;;4.78;1.25;;;15.50;99.90;;;;;;5082866;28;20111;-71
2023/03/12 02:26:08;;;;;;;3.85;1.30;;;15.50;99.90;;;;;;5076272;28;20025;-63
2023/03/12 02:28:42;;;;;;;2.47;1.27;;;15.40;99.90;;;;;;5075587;28;20048;-64
2023/03/12 02:31:16;;;;;;;3.30;1.20;;;15.40;99.90;;;;;;5076258;28;20334;-63
2023/03/12 02:33:42;;;;;;;1.48;1.08;;;15.40;99.90;;;;;;5074814;28;20086;-64
2023/03/12 02:36:08;;;;;;;4.35;1.45;;;15.40;99.90;;;;;;5077180;28;20107;-63
2023/03/12 02:38:48;;;;;;;2.65;1.30;;;15.40;99.90;;;;;;5076366;28;20034;-63
2023/03/12 02:41:28;;;;;;;3.67;1.20;;;15.40;99.90;;;;;;5077037;28;20458;-63
2023/03/12 02:44:13;;;;;;;1.83;1.05;;;15.40;99.90;;;;;;5075597;28;20047;-64
2023/03/12 02:46:45;;;;;;;2.70;1.35;;;15.40;99.90;;;;;;5075596;28;20024;-63
2023/03/12 02:49:13;;;;;;;2.33;1.20;;;15.40;99.90;;;;;;5091491;28;20027;-63
2023/03/12 02:51:40;;;;;;;4.65;1.60;;;15.40;99.90;;;;;;5092441;28;20029;-64
2023/03/12 02:54:06;;;;;;;4.05;1.52;;;15.40;99.90;;;;;;5075335;28;20071;-63
2023/03/12 02:56:33;;;;;;;2.78;1.50;;;15.40;99.90;;;;;;5094470;28;20428;-64
2023/03/12 02:58:59;;;;;;;3.63;1.40;;;15.40;99.90;;;;;;5078607;28;20484;-63
2023/03/12 03:01:25;;;;;;;4.18;1.30;;;15.40;99.90;;;;;;5095696;28;20031;-64
2023/03/12 03:03:53;;;;;;;3.45;1.30;;;15.40;99.90;;;;;;5094648;28;20320;-64
2023/03/12 03:06:19;;;;;;;2.42;1.40;;;15.30;99.90;;;;;;5096772;28;20031;-63
2023/03/12 03:08:46;;;;;;;2.58;1.40;;;15.40;99.90;;;;;;5095352;28;20140;-64
2023/03/12 03:11:12;;;;;;;2.72;1.20;;;15.30;99.90;;;;;;5079049;28;20342;-63
2023/03/12 03:13:38;;;;;;;3.22;1.40;;;15.40;99.90;;;;;;5078244;28;20069;-64
2023/03/12 03:16:05;;;;;;;2.35;1.10;;;15.30;99.90;;;;;;5096628;28;20133;-63
2023/03/12 03:18:31;;;;;;;3.20;1.27;;;15.30;99.90;;;;;;5093889;28;20032;-63
2023/03/12 03:21:05;;;;;;;3.22;1.35;;;15.30;99.90;;;;;;5095556;28;20039;-64
2023/03/12 03:23:33;;;;;;;2.47;1.30;;;15.30;99.90;;;;;;5095049;28;20024;-63
2023/03/12 03:25:59;;;;;;;2.47;1.20;;;15.30;99.90;;;;;;5096385;28;20028;-64
2023/03/12 03:28:26;;;;;;;2.88;1.50;;;15.30;99.90;;;;;;5095483;28;20043;-64
2023/03/12 03:30:56;;;;;;;4.30;1.40;;;15.30;99.90;;;;;;5095394;28;20036;-63
2023/03/12 03:33:23;;;;;;;4.97;1.40;;;15.30;99.90;;;;;;5093809;28;20035;-73
2023/03/12 03:35:49;;;;;;;4.93;1.30;;;15.30;99.90;;;;;;5095317;28;20032;-63
2023/03/12 03:38:16;;;;;;;1.92;1.30;;;15.30;99.90;;;;;;5094863;28;20086;-63
2023/03/12 03:40:42;;;;;;;4.10;1.30;;;15.30;99.90;;;;;;5095002;28;20374;-64
2023/03/12 03:43:09;;;;;;;6.25;1.90;;;15.30;99.90;;;;;;5094903;28;20020;-63
2023/03/12 03:45:35;;;;;;;3.50;1.45;;;15.30;99.90;;;;;;5095035;28;20032;-64
2023/03/12 03:48:01;;;;;;;4.22;1.50;;;15.30;99.90;;;;;;5077076;28;20055;-63
2023/03/12 03:50:27;;;;;;;2.35;1.20;;;15.30;99.90;;;;;;5094878;28;20103;-64
2023/03/12 03:52:53;;;;;;;2.97;1.45;;;15.30;99.90;;;;;;5094688;28;20063;-63
2023/03/12 03:55:19;;;;;;;4.15;1.48;;;15.30;99.90;;;;;;5095172;28;20040;-64
2023/03/12 03:57:47;;;;;;;2.90;1.20;;;15.30;99.90;;;;;;5095068;28;20135;-64
2023/03/12 04:00:16;;;;;;;6.85;1.30;;;15.30;99.90;;;;;;5095032;28;20028;-63
2023/03/12 04:02:45;;;;;;;4.75;1.30;;;15.30;99.90;;;;;;5077030;28;20036;-63
2023/03/12 04:05:14;;;;;;;3.85;1.65;;;15.30;99.90;;;;;;5095036;28;20434;-64
2023/03/12 04:07:41;;;;;;;2.78;1.40;;;15.20;99.90;;;;;;5093392;28;20039;-66
2023/03/12 04:10:08;;;;;;;3.80;1.40;;;15.20;99.90;;;;;;5093738;28;20335;-64
2023/03/12 04:12:34;;;;;;;2.92;1.13;;;15.20;99.90;;;;;;5093055;28;20024;-66
2023/03/12 04:15:00;;;;;;;3.45;1.45;;;15.20;99.90;;;;;;5093696;28;20055;-63
2023/03/12 04:17:26;;;;;;;3.40;1.20;;;15.20;99.90;;;;;;5093636;28;20338;-72
2023/03/12 04:19:52;;;;;;;2.92;1.40;;;15.20;99.90;;;;;;5094797;28;20054;-64
2023/03/12 04:22:18;;;;;;;2.08;1.30;;;15.20;99.90;;;;;;5092905;28;20366;-64
2023/03/12 04:24:44;;;;;;;2.40;1.20;;;15.20;99.90;;;;;;5097865;28;20020;-64
2023/03/12 04:27:10;;;;;;;2.75;1.25;;;15.20;99.90;;;;;;5078169;28;20055;-65
2023/03/12 04:29:38;;;;;;;3.90;1.40;;;15.20;99.90;;;;;;5085551;28;20431;-64
2023/03/12 04:32:04;;;;;;;3.35;1.20;;;15.20;99.90;;;;;;5072940;28;20032;-66
2023/03/12 04:34:30;;;;;;;3.50;1.52;;;15.20;99.90;;;;;;5072638;28;20082;-64
2023/03/12 04:36:56;;;;;;;2.33;1.42;;;15.20;99.90;;;;;;5074384;28;20035;-64
2023/03/12 04:39:22;;;;;;;2.28;1.17;;;15.20;99.90;;;;;;5075210;28;20111;-63
2023/03/12 04:41:50;;;;;;;3.63;1.35;;;15.20;99.90;;;;;;5078020;28;20082;-63
2023/03/12 04:44:16;;;;;;;2.50;1.30;;;15.20;99.90;;;;;;5061444;28;20420;-63
2023/03/12 04:46:43;;;;;;;3.38;1.20;;;15.20;99.90;;;;;;5077938;28;20040;-64
2023/03/12 04:49:12;;;;;;;3.47;1.20;;;15.20;99.90;;;;;;5077043;28;20115;-63
2023/03/12 04:51:40;;;;;;;3.90;1.33;;;15.10;99.90;;;;;;5077930;28;20036;-63
2023/03/12 04:54:06;;;;;;;2.63;1.27;;;15.10;99.90;;;;;;5077690;28;20081;-63
2023/03/12 04:56:33;;;;;;;2.35;1.20;;;15.10;99.90;;;;;;5063515;28;20451;-63
2023/03/12 04:58:59;;;;;;;3.38;1.60;;;15.10;99.90;;;;;;5097952;28;20047;-63
2023/03/12 05:01:33;;;;;;;4.05;1.60;;;15.10;99.90;;;;;;5098257;28;20032;-63
2023/03/12 05:04:03;;;;;;;7.07;1.67;;;15.20;99.90;;;;;;5097145;28;20028;-63
2023/03/12 05:06:29;;;;;;;3.13;1.60;;;15.10;99.90;;;;;;5098813;28;20264;-70
2023/03/12 05:08:56;;;;;;;4.22;1.52;;;15.10;99.90;;;;;;5097754;28;20024;-63
2023/03/12 05:11:23;;;;;;;2.38;1.10;;;15.10;99.90;;;;;;5098101;28;20032;-63
2023/03/12 05:13:49;;;;;;;2.22;1.17;;;15.10;99.90;;;;;;5098379;28;20028;-64
2023/03/12 05:16:16;;;;;;;3.03;1.52;;;15.10;99.90;;;;;;5081252;28;20038;-63
2023/03/12 05:18:43;;;;;;;2.85;1.40;;;15.10;99.90;;;;;;5096358;28;20028;-63
2023/03/12 05:21:18;;;;;;;3.22;1.40;;;15.10;99.90;;;;;;5097846;28;20035;-63
2023/03/12 05:23:44;;;;;;;2.58;1.20;;;15.10;99.90;;;;;;5097197;28;20300;-63
2023/03/12 05:26:31;;;;;;;4.93;1.10;;;15.10;99.90;;;;;;5097730;28;20109;-63
2023/03/12 05:29:07;;;;;;;4.38;1.50;;;15.10;99.90;;;;;;5097357;28;20032;-63
2023/03/12 05:31:34;;;;;;;3.58;1.48;;;15.10;99.90;;;;;;5097446;28;20121;-63
2023/03/12 05:34:03;;;;;;;2.92;1.25;;;15.10;99.90;;;;;;5096612;28;20028;-63
2023/03/12 05:36:30;;;;;;;3.03;1.35;;;15.10;99.90;;;;;;5097584;28;20028;-63
2023/03/12 05:38:56;;;;;;;3.67;1.30;;;15.00;99.90;;;;;;5096870;28;20027;-63
2023/03/12 05:41:26;;;;;;;3.38;1.42;;;15.00;99.90;;;;;;5097496;28;20050;-62
2023/03/12 05:43:56;;;;;;;2.28;1.20;;;15.10;99.90;;;;;;5096846;28;20500;-63
2023/03/12 05:46:26;;;;;;;3.53;1.60;;;15.00;99.90;;;;;;5098435;28;20074;-63
2023/03/12 05:48:52;;;;;;;2.25;1.38;;;15.00;99.90;;;;;;5095871;28;20032;-63
2023/03/12 05:51:19;;;;;;;2.42;1.23;;;15.00;99.90;;;;;;5096986;28;20063;-63
2023/03/12 05:53:45;;;;;;;3.75;1.50;;;15.00;99.90;;;;;;5096527;28;20024;-63
2023/03/12 05:56:13;;;;;;;6.30;2.03;;;15.00;99.90;;;;;;5097124;28;20082;-63
2023/03/12 05:58:40;;;;;;;2.45;1.33;;;15.00;99.90;;;;;;5097319;28;20081;-66
2023/03/12 06:01:18;;;;;;;3.33;1.40;;;15.00;99.90;;;;;;5098083;28;20104;-63
2023/03/12 06:03:46;;;;;;;4.55;1.50;;;15.00;99.90;;;;;;5095110;28;20021;-64
2023/03/12 06:06:12;;;;;;;4.03;1.40;;;15.00;99.90;;;;;;5084536;28;20110;-63
2023/03/12 06:08:40;;;;;;;6.32;1.23;;;15.00;99.90;;;;;;5110456;28;20036;-63
2023/03/12 06:11:06;;;;;;;6.68;1.92;;;15.00;99.90;;;;;;5116362;28;20440;-63
2023/03/12 06:13:32;;;;;;;2.95;1.27;;;15.00;99.90;;;;;;5115442;28;20070;-62
2023/03/12 06:16:06;;;;;;;5.25;1.42;;;15.00;99.90;;;;;;5116234;28;20035;-62
2023/03/12 06:18:34;;;;;;;3.30;1.27;;;15.00;99.90;;;;;;5114936;28;20036;-63
2023/03/12 06:21:15;;;;;;;3.28;1.50;;;15.00;99.90;;;;;;5116199;28;20028;-63
2023/03/12 06:23:41;;;;;;;2.63;1.27;;;15.00;99.90;;;;;;5115994;28;20088;-63
2023/03/12 06:26:11;;;;;;;3.72;1.55;;;15.00;99.90;;;;;;5116923;28;20414;-63
2023/03/12 06:28:37;;;;;;;3.45;1.40;;;15.00;99.90;;;;;;5116492;28;20055;-74
2023/03/12 06:31:04;;;;;;;5.40;1.70;;;15.00;99.90;;;;;;5117934;28;20485;-62
2023/03/12 06:33:30;;;;;;;2.20;1.20;;;15.00;99.90;;;;;;5115544;28;20039;-62
2023/03/12 06:35:57;;;;;;;3.88;1.52;;;15.00;99.90;;;;;;5117569;28;20445;-66
2023/03/12 06:38:24;;;;;;;5.90;1.50;;;15.00;99.90;;;;;;5117441;28;20082;-62
2023/03/12 06:41:17;;;;;;;4.15;1.30;;;15.00;99.90;;;;;;5117415;28;20441;-63
2023/03/12 06:43:43;;;;;;;6.07;1.67;;;15.00;99.90;;;;;;5114251;28;20035;-63
2023/03/12 06:46:16;;;;;;;3.97;1.30;;;15.00;99.90;;;;;;5117693;28;20410;-62
2023/03/12 06:48:44;;;;;;;6.03;1.35;;;15.00;99.90;;;;;;5115916;28;20057;-63
2023/03/12 06:51:13;;;;;;;4.68;1.50;;;15.00;99.90;;;;;;5117524;28;20115;-62
2023/03/12 06:53:39;;;;;;;5.10;1.45;;;15.00;99.90;;;;;;5116067;28;20028;-62
2023/03/12 06:56:06;;;;;;;6.47;1.60;;;15.00;99.90;;;;;;5116141;28;20031;-62
2023/03/12 06:58:32;;;;;;;5.47;1.50;;;15.00;99.90;;;;;;5096444;28;20059;-62
2023/03/12 07:00:58;;;;;;;5.90;1.35;;;15.00;99.90;;;;;;5096777;28;20480;-63
2023/03/12 07:03:24;;;;;;;5.43;1.40;;;15.00;99.90;;;;;;5094909;28;20020;-62
2023/03/12 07:05:51;;;;;;;5.20;1.20;;;15.00;99.90;;;;;;5096526;28;20111;-62
2023/03/12 07:08:17;;;;;;;3.67;1.42;;;15.00;99.90;;;;;;5095380;28;20038;-62
2023/03/12 07:10:44;;;;;;;5.05;1.45;;;15.10;99.90;;;;;;5096481;28;20042;-64
2023/03/12 07:13:10;;;;;;;3.63;1.35;;;15.10;99.90;;;;;;5096391;28;20040;-63
2023/03/12 07:15:36;;;;;;;5.30;1.20;;;15.00;99.90;;;;;;5096743;28;20107;-63
2023/03/12 07:18:10;;;;;;;3.42;1.20;;;15.10;99.90;;;;;;5094849;28;20043;-63
2023/03/12 07:20:41;;;;;;;7.03;1.75;;;15.10;99.90;;;;;;5089775;28;20733;-64
2023/03/12 07:23:07;;;;;;;10.25;1.70;;;15.00;99.90;;;;;;5080623;28;20065;-63
2023/03/12 07:25:38;;;;;;;5.78;1.60;;;15.10;99.90;;;;;;5095581;28;20454;-64
2023/03/12 07:28:04;;;;;;;7.05;1.60;;;15.10;99.90;;;;;;5084179;28;20059;-67
2023/03/12 07:30:32;;;;;;;4.07;1.60;;;15.10;99.90;;;;;;5094025;28;20085;-66
2023/03/12 07:33:06;;;;;;;3.40;1.25;;;15.10;99.90;;;;;;5092284;28;20070;-63
2023/03/12 07:35:32;;;;;;;8.15;1.75;;;15.10;99.90;;;;;;5086527;28;20093;-64
2023/03/12 07:37:59;;;;;;;4.30;1.60;;;15.10;99.90;;;;;;5094295;28;20036;-63
2023/03/12 07:40:25;;;;;;;5.85;2.40;;;15.10;99.90;;;;;;5078383;28;20323;-63
2023/03/12 07:42:51;;;;;;;9.73;1.60;;;15.10;99.90;;;;;;5095644;28;20031;-63
2023/03/12 07:45:18;;;;;;;4.63;1.70;;;15.10;99.90;;;;;;5096362;28;20028;-63
2023/03/12 07:47:44;;;;;;;8.25;1.73;;;15.10;99.90;;;;;;5093812;28;20075;-64
2023/03/12 07:50:11;;;;;;;8.00;1.50;;;15.10;99.90;;;;;;5096072;28;20039;-63
2023/03/12 07:52:37;;;;;;;6.28;1.80;;;15.10;99.90;;;;;;5096018;28;20384;-64
2023/03/12 07:55:03;;;;;;;6.75;1.90;;;15.10;99.90;;;;;;5095881;28;20070;-63
2023/03/12 07:57:29;;;;;;;3.55;1.70;;;15.10;99.90;;;;;;5095178;28;20543;-63
2023/03/12 07:59:55;;;;;;;4.43;1.80;;;15.10;99.90;;;;;;5095793;28;20024;-63
2023/03/12 08:02:21;;;;;;;7.60;1.80;;;15.10;99.90;;;;;;5094547;28;20036;-70
2023/03/12 08:04:47;;;;;;;5.05;1.60;;;15.10;99.90;;;;;;5095327;28;20081;-69
2023/03/12 08:07:13;;;;;;;6.53;2.22;;;15.10;99.90;;;;;;5095832;28;20032;-64
2023/03/12 08:09:40;;;;;;;4.15;1.92;;;15.10;99.90;;;;;;5095831;28;20497;-64
2023/03/12 08:12:07;;;;;;;5.70;2.00;;;15.10;99.90;;;;;;5095680;28;20304;-63
2023/03/12 08:14:33;;;;;;;4.97;1.90;;;15.10;99.90;;;;;;5098827;28;20056;-63
2023/03/12 08:16:59;;;;;;;4.47;1.65;;;15.10;99.90;;;;;;5099686;28;20032;-63
2023/03/12 08:19:25;;;;;;;4.57;1.80;;;15.10;99.90;;;;;;5098735;28;20334;-63
2023/03/12 08:21:52;;;;;;;4.60;1.70;;;15.10;99.90;;;;;;5099676;28;20322;-64
2023/03/12 08:24:19;;;;;;;5.60;2.00;;;15.10;99.90;;;;;;5099622;28;20035;-63
2023/03/12 08:26:45;;;;;;;5.05;1.73;;;15.10;99.90;;;;;;5099806;28;20048;-65
2023/03/12 08:29:11;;;;;;;3.08;1.50;;;15.10;99.90;;;;;;5099276;28;20086;-63
2023/03/12 08:31:37;;;;;;;4.20;1.90;;;15.10;99.90;;;;;;5099804;28;20028;-63
2023/03/12 08:34:03;;;;;;;4.25;1.75;;;15.10;99.90;;;;;;5098177;28;20095;-64
2023/03/12 08:36:29;;;;;;;4.03;1.65;;;15.10;99.90;;;;;;5099856;28;20111;-63
2023/03/12 08:38:55;;;;;;;2.80;1.40;;;15.10;99.90;;;;;;5099005;28;20024;-63
2023/03/12 08:41:21;;;;;;;5.65;1.95;;;15.10;99.90;;;;;;5099664;28;20407;-63
2023/03/12 08:43:47;;;;;;;4.43;2.00;;;15.10;99.90;;;;;;5099223;28;20047;-64
2023/03/12 08:46:13;;;;;;;4.80;1.65;;;15.10;99.90;;;;;;5099315;28;20052;-63
2023/03/12 08:48:39;;;;;;;5.15;1.90;;;15.10;99.90;;;;;;5098189;28;20073;-64
2023/03/12 08:51:06;;;;;;;5.93;1.77;;;15.10;99.90;;;;;;5099271;28;20110;-63
2023/03/12 08:53:34;;;;;;;3.80;1.60;;;15.10;99.90;;;;;;5099089;28;20056;-63
2023/03/12 08:56:01;;;;;;;4.30;1.80;;;15.10;99.90;;;;;;5081172;28;20032;-64
2023/03/12 08:58:27;;;;;;;3.75;1.90;;;15.10;99.90;;;;;;5080110;28;20123;-64
2023/03/12 09:00:53;;;;;;;3.58;1.70;;;15.10;99.90;;;;;;5078714;28;20471;-67
2023/03/12 09:03:20;;;;;;;3.63;1.70;;;15.10;99.90;;;;;;5077620;28;20434;-64
2023/03/12 09:05:47;;;;;;;4.95;1.90;;;15.10;99.90;;;;;;5077865;28;20075;-64
2023/03/12 09:08:14;;;;;;;5.13;1.90;;;15.10;99.90;;;;;;5078249;28;20109;-64
2023/03/12 09:10:45;;;;;;;3.97;1.73;;;15.10;99.90;;;;;;5078813;28;20028;-64
2023/03/12 09:13:11;;;;;;;4.22;1.52;;;15.10;99.90;;;;;;5078202;28;20025;-64
2023/03/12 09:15:37;;;;;;;4.53;1.70;;;15.20;99.90;;;;;;5079006;28;20102;-64
2023/03/12 09:18:03;;;;;;;3.33;1.70;;;15.10;99.90;;;;;;5077067;28;20067;-63
2023/03/12 09:20:29;;;;;;;4.40;1.90;;;15.10;99.90;;;;;;5078706;28;20379;-63
2023/03/12 09:22:55;;;;;;;3.17;1.60;;;15.10;99.90;;;;;;5077914;28;20060;-64
2023/03/12 09:25:22;;;;;;;3.15;1.50;;;15.10;99.90;;;;;;5077781;28;20039;-64
2023/03/12 09:27:48;;;;;;;3.42;1.60;;;15.10;99.90;;;;;;5078040;28;20040;-64
2023/03/12 09:30:16;;;;;;;3.95;1.77;;;15.10;99.90;;;;;;5078232;28;20063;-64
2023/03/12 09:32:44;;;;;;;4.05;1.77;;;15.10;99.90;;;;;;5076942;28;20032;-64
2023/03/12 09:35:12;;;;;;;3.92;1.65;;;15.10;99.90;;;;;;5078085;28;20437;-63
2023/03/12 09:37:37;;;;;;;4.85;1.90;;;15.10;99.90;;;;;;5077866;28;20028;-64
2023/03/12 09:40:06;;;;;;;3.30;1.50;;;15.10;99.90;;;;;;5076984;28;20037;-64
2023/03/12 09:43:10;;;;;;;5.03;1.70;;;15.10;99.90;;;;;;5077856;28;20031;-64
2023/03/12 09:45:41;;;;;;;3.05;1.55;;;15.10;99.90;;;;;;5071959;28;20036;-65
2023/03/12 09:48:22;;;;;;;3.65;1.85;;;15.10;99.90;;;;;;5076595;28;20050;-64
2023/03/12 09:50:50;;;;;;;4.82;1.52;;;15.10;99.90;;;;;;5078070;28;20032;-64
2023/03/12 09:53:19;;;;;;;3.22;1.40;;;15.10;99.90;;;;;;5077418;28;20032;-64
2023/03/12 09:55:49;;;;;;;3.13;1.33;;;15.10;99.90;;;;;;5077981;28;20070;-64
2023/03/12 09:58:25;;;;;;;3.55;1.55;;;15.10;99.90;;;;;;5076895;28;20127;-63
2023/03/12 10:00:59;;;;;;;3.92;1.27;;;15.10;99.90;;;;;;5077912;28;20411;-64
2023/03/12 10:03:39;;;;;;;3.20;1.33;;;15.10;99.90;;;;;;5076811;28;20028;-63
2023/03/12 10:06:20;;;;;;;3.15;1.45;;;15.10;99.90;;;;;;5077498;28;20098;-64
2023/03/12 10:09:09;;;;;;;3.78;1.40;;;15.10;99.90;;;;;;5077440;28;20150;-64
2023/03/12 10:11:57;;;;;;;2.15;1.40;;;15.10;99.90;;;;;;5077702;28;20478;-64
2023/03/12 10:14:38;;;;;;;5.28;1.40;;;15.10;99.90;;;;;;5077089;28;20025;-63
2023/03/12 10:17:22;;;;;;;2.70;1.50;;;15.10;99.90;;;;;;5077159;28;20040;-64
2023/03/12 10:20:15;;;;;;;2.25;1.30;;;15.10;99.90;;;;;;5076052;28;20029;-64
2023/03/12 10:22:44;;;;;;;2.20;1.30;;;15.10;99.90;;;;;;5077020;28;20434;-64
2023/03/12 10:25:29;;;;;;;4.38;1.52;;;15.10;99.90;;;;;;5077249;28;20060;-63
2023/03/12 10:28:03;;;;;;;3.33;1.45;;;15.10;99.90;;;;;;5076926;28;20037;-64
2023/03/12 10:30:30;;;;;;;3.65;1.48;;;15.10;99.90;;;;;;5077480;28;20040;-64
2023/03/12 10:33:05;;;;;;;3.83;1.52;;;15.10;99.90;;;;;;5075915;28;20380;-63
2023/03/12 10:35:31;;;;;;;3.00;1.33;;;15.10;99.90;;;;;;5077347;28;20070;-64
2023/03/12 10:38:00;;;;;;;4.53;1.40;;;15.10;99.90;;;;;;5075632;28;20056;-64
2023/03/12 10:40:35;;;;;;;2.63;1.40;;;15.10;99.90;;;;;;5076922;28;20027;-64
2023/03/12 10:43:02;;;;;;;3.15;1.58;;;15.10;99.90;;;;;;5076705;28;20025;-64
2023/03/12 10:45:40;;;;;;;3.00;1.50;;;15.10;99.90;;;;;;5077316;28;20304;-63
2023/03/12 10:48:10;;;;;;;4.53;1.50;;;15.10;99.90;;;;;;5074358;28;20439;-64
2023/03/12 10:50:40;;;;;;;2.53;1.30;;;15.10;99.90;;;;;;5076965;28;20036;-64
2023/03/12 10:53:21;;;;;;;2.88;1.30;;;15.10;99.90;;;;;;5076277;28;20056;-64
2023/03/12 10:56:14;;;;;;;2.25;1.30;;;15.10;99.90;;;;;;5076805;28;20038;-64
2023/03/12 10:58:42;;;;;;;2.65;1.30;;;15.10;99.90;;;;;;5066806;28;20338;-64
2023/03/12 11:01:29;;;;;;;3.78;1.30;;;15.10;99.90;;;;;;5076399;28;20042;-64
2023/03/12 11:04:36;;;;;;;2.20;1.13;;;15.10;99.90;;;;;;5075559;28;20362;-63
2023/03/12 11:07:06;;;;;;;2.13;1.23;;;15.10;99.90;;;;;;5075361;28;20048;-63
2023/03/12 11:09:32;;;;;;;2.83;1.20;;;15.10;99.90;;;;;;5076224;28;20021;-64
2023/03/12 11:11:58;;;;;;;2.70;1.50;;;15.10;99.90;;;;;;5076439;28;20039;-64
2023/03/12 11:14:26;;;;;;;2.00;1.15;;;15.10;99.90;;;;;;5075862;28;20415;-64
2023/03/12 11:16:54;;;;;;;2.65;1.40;;;15.10;99.90;;;;;;5076245;28;20111;-64
2023/03/12 11:19:33;;;;;;;2.05;1.20;;;15.10;99.90;;;;;;5073780;28;20039;-64
2023/03/12 11:22:07;;;;;;;3.20;1.30;;;15.10;99.90;;;;;;5076285;28;20032;-65
2023/03/12 11:24:34;;;;;;;2.65;1.10;;;15.10;99.90;;;;;;5076031;28;20089;-63
2023/03/12 11:27:16;;;;;;;2.47;1.30;;;15.10;99.90;;;;;;5076474;28;20082;-63
2023/03/12 11:29:47;;;;;;;1.83;1.10;;;15.10;99.90;;;;;;5076056;28;20107;-64
2023/03/12 11:32:28;;;;;;;1.83;1.20;;;15.10;99.90;;;;;;5075543;28;20025;-67
2023/03/12 11:34:54;;;;;;;2.72;1.20;;;15.10;99.90;;;;;;5076191;28;20054;-64
2023/03/12 11:37:29;;;;;;;2.05;1.15;;;15.10;99.90;;;;;;5074898;28;20379;-69
2023/03/12 11:40:10;;;;;;;2.22;1.25;;;15.10;99.90;;;;;;5076101;28;20059;-64
2023/03/12 11:42:51;;;;;;;2.30;1.20;;;15.10;99.90;;;;;;5075769;28;20029;-64
2023/03/12 11:45:38;;;;;;;1.88;1.10;;;15.10;99.90;;;;;;5075871;28;20415;-64
2023/03/12 11:48:23;;;;;;;2.05;1.13;;;15.10;99.90;;;;;;5074372;28;20059;-64
2023/03/12 11:50:55;;;;;;;2.38;1.20;;;15.10;99.90;;;;;;5075985;28;20119;-64
2023/03/12 11:53:51;;;;;;;1.52;1.10;;;15.10;99.90;;;;;;5075413;28;20285;-64
2023/03/12 11:56:28;;;;;;;2.08;1.10;;;15.10;99.90;;;;;;5066751;28;20134;-64
2023/03/12 11:59:24;;;;;;;2.75;1.25;;;15.10;99.90;;;;;;5095923;28;20044;-64
2023/03/12 12:02:31;;;;;;;2.58;1.27;;;15.10;99.90;;;;;;5095984;28;20031;-64
2023/03/12 12:05:09;;;;;;;1.80;1.15;;;15.10;99.90;;;;;;5096072;28;20020;-63
2023/03/12 12:07:40;;;;;;;2.33;1.23;;;15.10;99.90;;;;;;5095452;28;20103;-63
2023/03/12 12:10:24;;;;;;;1.90;1.20;;;15.10;99.90;;;;;;5096003;28;20024;-64
2023/03/12 12:12:49;;;;;;;2.47;1.30;;;15.10;99.90;;;;;;5095478;28;20331;-64
2023/03/12 12:15:21;;;;;;;1.50;1.05;;;15.10;99.90;;;;;;5095714;28;20024;-64
2023/03/12 12:17:56;;;;;;;1.42;1.10;;;15.10;99.90;;;;;;5094553;28;20035;-64
2023/03/12 12:20:44;;;;;;;2.07;1.17;;;15.20;99.90;;;;;;5095682;28;20043;-64
2023/03/12 12:23:27;;;;;;;2.63;1.30;;;15.10;99.90;;;;;;5095552;28;20028;-64
2023/03/12 12:26:06;;;;;;;1.77;1.17;;;15.20;99.90;;;;;;5095778;28;20474;-63
2023/03/12 12:29:04;;;;;;;1.42;1.00;;;15.10;99.90;;;;;;5095275;28;20044;-64
2023/03/12 12:31:43;;;;;;;2.47;1.40;;;15.10;99.90;;;;;;5095666;28;20418;-64
2023/03/12 12:34:54;;;;;;;2.42;1.25;;;15.10;99.90;;;;;;5094597;28;20111;-64
2023/03/12 12:37:40;;;;;;;4.20;1.45;;;15.20;99.90;;;;;;5091860;28;20174;-63
2023/03/12 12:40:38;;;;;;;2.53;0.98;;;15.10;99.90;;;;;;5095798;28;20047;-65
2023/03/12 12:43:46;;;;;;;2.20;1.10;;;15.20;99.90;;;;;;5091323;28;20169;-64
2023/03/12 12:46:41;;;;;;;2.00;1.10;;;15.20;99.90;;;;;;5092980;28;20032;-63
2023/03/12 12:49:24;;;;;;;2.95;1.20;;;15.20;99.90;;;;;;5094418;28;20030;-64
2023/03/12 12:51:55;;;;;;;3.33;1.30;;;15.20;99.90;;;;;;5094587;28;20052;-64
2023/03/12 12:54:35;;;;;;;2.75;1.50;;;15.20;99.90;;;;;;5095130;28;20445;-64
2023/03/12 12:57:19;;;;;;;3.22;1.08;;;15.20;99.90;;;;;;5095055;28;20095;-64
2023/03/12 13:00:18;;;;;;;2.55;1.20;;;15.20;99.90;;;;;;5093902;28;20032;-64
2023/03/12 13:02:46;;;;;;;3.70;1.42;;;15.20;99.90;;;;;;5096940;28;20101;-66
2023/03/12 13:05:35;;;;;;;4.75;1.60;;;15.20;99.90;;;;;;5099300;28;20067;-64